Malleco — CQCZ — position and weather

sailwx.info

Track history (hours):
 
Tides and Currents Weather Stations Pressure Air Temp Water Temp Dewpoint Dewpoint Depression Visibility Wind Speed Wind Dir Waves Ship Positions

Malleco

Last reported at 2018-May-01 07:32 UTC. Time now 2018-Jun-23 13:54 UTC.
Position N 01°32' E 103°06'.
Warning: this ship's position is 53 days out of date.

Length 306 m; draft 8.8 m.

Type: Ship (hazmat cat A). MMSI: 255805776.

Date/timePositionNaut miles runAvg speedWind from/ knotsBaromVisibWave heightAir tempDewpointWater temp
2018-May-01 07:32N 01°32' E 103°06'816.7
2018-May-01 07:04N 01°26' E 103°12'216.9
2018-May-01 06:57N 01°25' E 103°13'816.2
2018-May-01 06:29N 01°20' E 103°19'815.5
2018-May-01 05:59N 01°15' E 103°24'715.1
2018-May-01 05:30N 01°12' E 103°31'714.3
2018-May-01 05:00N 01°12' E 103°39'2 4.8
2018-May-01 04:30N 01°13' E 103°41'612.3
2018-May-01 03:59N 01°16' E 103°46'1 1.5
2018-May-01 03:28N 01°17' E 103°47'0 0.0
2018-May-01 02:59N 01°17' E 103°47'0 0.0
2018-May-01 02:20N 01°17' E 103°47'0 0.0
2018-May-01 01:56N 01°17' E 103°47'0 0.0
2018-May-01 01:29N 01°17' E 103°47'0 0.0
2018-May-01 00:59N 01°17' E 103°47'0 0.0
2018-May-01 00:30N 01°17' E 103°47'0 0.0
2018-May-01 00:00N 01°17' E 103°47'0 0.0
2018-Apr-30 23:24N 01°17' E 103°47'0 0.0
2018-Apr-30 22:59N 01°17' E 103°47'0 0.0
2018-Apr-30 22:29N 01°17' E 103°47'0 0.0
2018-Apr-30 21:56N 01°17' E 103°47'0 0.0
2018-Apr-30 21:30N 01°17' E 103°47'0 0.0
2018-Apr-30 21:00N 01°17' E 103°47'0 0.0
2018-Apr-30 20:30N 01°17' E 103°47'0 0.0
2018-Apr-30 19:41N 01°17' E 103°47'0 0.0
2018-Apr-30 19:13N 01°17' E 103°47'0 0.0
2018-Apr-30 19:00N 01°17' E 103°47'0 0.0
2018-Apr-30 18:30N 01°17' E 103°47'0 0.0
2018-Apr-30 18:00N 01°17' E 103°47'0 0.0
2018-Apr-30 17:30N 01°17' E 103°47'0 0.0
2018-Apr-30 16:53N 01°17' E 103°47'0 0.0
2018-Apr-30 16:25N 01°17' E 103°47'0 0.0
2018-Apr-30 15:56N 01°17' E 103°47'0 0.0
2018-Apr-30 15:30N 01°17' E 103°47'0 0.0
2018-Apr-30 14:59N 01°17' E 103°47'0 0.0
2018-Apr-30 14:26N 01°17' E 103°47'0 0.0
2018-Apr-30 13:58N 01°17' E 103°47'0 0.1
2018-Apr-30 13:30N 01°17' E 103°47'0 0.1
2018-Apr-30 13:00N 01°17' E 103°47'0 0.1
2018-Apr-30 12:30N 01°17' E 103°47'1 2.3
2018-Apr-30 12:00N 01°15' E 103°47'2 3.2
2018-Apr-30 11:30N 01°14' E 103°47'0 0.0
2018-Apr-30 10:57N 01°14' E 103°47'0 0.0
2018-Apr-30 10:29N 01°14' E 103°47'0 0.0
2018-Apr-30 09:57N 01°14' E 103°47'0 0.1
2018-Apr-30 09:29N 01°14' E 103°47'0 0.0
2018-Apr-30 08:54N 01°14' E 103°47'0 0.0
2018-Apr-30 08:30N 01°14' E 103°47'0 0.2
2018-Apr-30 08:00N 01°14' E 103°47'3 5.6
2018-Apr-30 07:30N 01°15' E 103°45'5 9.1
2018-Apr-30 07:00N 01°12' E 103°40'3 7.0
2018-Apr-30 06:30N 01°13' E 103°37'5 8.9
2018-Apr-30 05:59N 01°11' E 103°33'714.4
2018-Apr-30 05:30N 01°12' E 103°26'1018.9
2018-Apr-30 05:00N 01°18' E 103°18'  
2018-Apr-24 04:57N 10°11' E 071°45'1213.7
2018-Apr-24 04:03N 10°20' E 071°37'113.6
2018-Apr-24 04:00N 10°21' E 071°37'713.5
2018-Apr-24 03:30N 10°26' E 071°32'913.7
2018-Apr-24 02:50N 10°33' E 071°26'11713.7
2018-Apr-23 18:16N 12°01' E 070°08'414.1
2018-Apr-23 17:59N 12°04' E 070°05'1614.1
2018-Apr-23 16:50N 12°16' E 069°54'15015.2
2018-Apr-23 06:57N 14°09' E 068°13'21914.3
2018-Apr-22 15:39N 16°54' E 065°42'214.8
2018-Apr-22 15:30N 16°55' E 065°41'1214.6
2018-Apr-22 14:43N 17°04' E 065°33'  
Track history (hours):
 
Tides and Currents Weather Stations Pressure Air Temp Water Temp Dewpoint Dewpoint Depression Visibility Wind Speed Wind Dir Waves Ship Positions

Malleco

Last reported at 2018-May-01 07:32 UTC. Time now 2018-Jun-23 13:54 UTC.
Position N 01°32' E 103°06'.
Warning: this ship's position is 53 days out of date.

Length 306 m; draft 8.8 m.

Type: Ship (hazmat cat A). MMSI: 255805776.

Date/timePositionNaut miles runAvg speedWind from/ knotsBaromVisibWave heightAir tempDewpointWater temp
2018-May-01 07:32N 01°32' E 103°06'816.7
2018-May-01 07:04N 01°26' E 103°12'216.9
2018-May-01 06:57N 01°25' E 103°13'816.2
2018-May-01 06:29N 01°20' E 103°19'815.5
2018-May-01 05:59N 01°15' E 103°24'715.1
2018-May-01 05:30N 01°12' E 103°31'714.3
2018-May-01 05:00N 01°12' E 103°39'2 4.8
2018-May-01 04:30N 01°13' E 103°41'612.3
2018-May-01 03:59N 01°16' E 103°46'1 1.5
2018-May-01 03:28N 01°17' E 103°47'0 0.0
2018-May-01 02:59N 01°17' E 103°47'0 0.0
2018-May-01 02:20N 01°17' E 103°47'0 0.0
2018-May-01 01:56N 01°17' E 103°47'0 0.0
2018-May-01 01:29N 01°17' E 103°47'0 0.0
2018-May-01 00:59N 01°17' E 103°47'0 0.0
2018-May-01 00:30N 01°17' E 103°47'0 0.0
2018-May-01 00:00N 01°17' E 103°47'0 0.0
2018-Apr-30 23:24N 01°17' E 103°47'0 0.0
2018-Apr-30 22:59N 01°17' E 103°47'0 0.0
2018-Apr-30 22:29N 01°17' E 103°47'0 0.0
2018-Apr-30 21:56N 01°17' E 103°47'0 0.0
2018-Apr-30 21:30N 01°17' E 103°47'0 0.0
2018-Apr-30 21:00N 01°17' E 103°47'0 0.0
2018-Apr-30 20:30N 01°17' E 103°47'0 0.0
2018-Apr-30 19:41N 01°17' E 103°47'0 0.0
2018-Apr-30 19:13N 01°17' E 103°47'0 0.0
2018-Apr-30 19:00N 01°17' E 103°47'0 0.0
2018-Apr-30 18:30N 01°17' E 103°47'0 0.0
2018-Apr-30 18:00N 01°17' E 103°47'0 0.0
2018-Apr-30 17:30N 01°17' E 103°47'0 0.0
2018-Apr-30 16:53N 01°17' E 103°47'0 0.0
2018-Apr-30 16:25N 01°17' E 103°47'0 0.0
2018-Apr-30 15:56N 01°17' E 103°47'0 0.0
2018-Apr-30 15:30N 01°17' E 103°47'0 0.0
2018-Apr-30 14:59N 01°17' E 103°47'0 0.0
2018-Apr-30 14:26N 01°17' E 103°47'0 0.0
2018-Apr-30 13:58N 01°17' E 103°47'0 0.1
2018-Apr-30 13:30N 01°17' E 103°47'0 0.1
2018-Apr-30 13:00N 01°17' E 103°47'0 0.1
2018-Apr-30 12:30N 01°17' E 103°47'1 2.3
2018-Apr-30 12:00N 01°15' E 103°47'2 3.2
2018-Apr-30 11:30N 01°14' E 103°47'0 0.0
2018-Apr-30 10:57N 01°14' E 103°47'0 0.0
2018-Apr-30 10:29N 01°14' E 103°47'0 0.0
2018-Apr-30 09:57N 01°14' E 103°47'0 0.1
2018-Apr-30 09:29N 01°14' E 103°47'0 0.0
2018-Apr-30 08:54N 01°14' E 103°47'0 0.0
2018-Apr-30 08:30N 01°14' E 103°47'0 0.2
2018-Apr-30 08:00N 01°14' E 103°47'3 5.6
2018-Apr-30 07:30N 01°15' E 103°45'5 9.1
2018-Apr-30 07:00N 01°12' E 103°40'3 7.0
2018-Apr-30 06:30N 01°13' E 103°37'5 8.9
2018-Apr-30 05:59N 01°11' E 103°33'714.4
2018-Apr-30 05:30N 01°12' E 103°26'1018.9
2018-Apr-30 05:00N 01°18' E 103°18'  
2018-Apr-24 04:57N 10°11' E 071°45'1213.7
2018-Apr-24 04:03N 10°20' E 071°37'113.6
2018-Apr-24 04:00N 10°21' E 071°37'713.5
2018-Apr-24 03:30N 10°26' E 071°32'913.7
2018-Apr-24 02:50N 10°33' E 071°26'11713.7
2018-Apr-23 18:16N 12°01' E 070°08'414.1
2018-Apr-23 17:59N 12°04' E 070°05'1614.1
2018-Apr-23 16:50N 12°16' E 069°54'15015.2
2018-Apr-23 06:57N 14°09' E 068°13'21914.3
2018-Apr-22 15:39N 16°54' E 065°42'214.8
2018-Apr-22 15:30N 16°55' E 065°41'1214.6
2018-Apr-22 14:43N 17°04' E 065°33'  

Dump ship's entire track history